Alexandra — WDD5677 — position and weather

sailwx.info

Track history (hours):
 
Tides and Currents Weather Stations Pressure Air Temp Water Temp Dewpoint Dewpoint Depression Visibility Wind Speed Wind Dir Waves Ship Positions

Alexandra

Owner: Weeks Marine, Inc., Cranford, NJ. More information available from US FCC via Universal Licensing System and Coast Guard Vessel Documentation Center.

Last reported at 2017-May-15 18:17 UTC. Time now 2017-May-23 07:04 UTC.
Position N 25°17' W 080°07'.

Length 37 m; draft 5 m.

Type: Tug. MMSI: 367161950.

Date/timePositionNaut miles runAvg speedWind from/ knotsBaromVisibWave heightAir tempDewpointWater temp
2017-May-15 18:17N 25°17' W 080°07'310.5
2017-May-15 17:59N 25°20' W 080°06'510.1
2017-May-15 17:30N 25°25' W 080°05'5 9.7
2017-May-15 17:00N 25°30' W 080°04'5 9.3
2017-May-15 16:30N 25°34' W 080°03'4 8.9
2017-May-15 16:00N 25°39' W 080°03'4 8.7
2017-May-15 15:30N 25°43' W 080°04'4 8.6
2017-May-15 15:00N 25°47' W 080°04'9 8.6
2017-May-15 14:00N 25°56' W 080°04'5 8.9
2017-May-15 13:30N 26°00' W 080°04'4 9.0
2017-May-15 13:00N 26°05' W 080°04'5 9.2
2017-May-15 12:30N 26°09' W 080°03'5 9.3
2017-May-15 12:00N 26°14' W 080°02'510.2
2017-May-15 11:30N 26°19' W 080°02'510.5
2017-May-15 11:00N 26°24' W 080°03'510.4
2017-May-15 10:30N 26°29' W 080°02'510.6
2017-May-15 10:00N 26°35' W 080°02'611.2
2017-May-15 09:30N 26°40' W 080°01'710.7
2017-May-15 08:52N 26°47' W 079°59'410.5
2017-May-15 08:30N 26°51' W 079°60'611.1
2017-May-15 08:00N 26°56' W 080°01'612.0
2017-May-15 07:30N 27°02' W 080°03'28911.4
2017-May-14 06:12N 31°48' W 080°46'311.6
2017-May-14 05:59N 31°50' W 080°44'511.5
2017-May-14 05:30N 31°55' W 080°40'25711.1
2017-May-13 06:19N 34°24' W 076°30'28010.7
2017-May-12 04:05N 38°52' W 074°49'111.3
2017-May-12 03:59N 38°52' W 074°48'511.4
2017-May-12 03:30N 38°57' W 074°44'611.5
2017-May-12 02:58N 39°02' W 074°39'3611.5
2017-May-11 23:52N 39°31' W 074°12'511.7
2017-May-11 23:27N 39°35' W 074°09'511.6
2017-May-11 22:59N 39°40' W 074°06'611.6
2017-May-11 22:30N 39°45' W 074°03'2111.6
2017-May-11 20:43N 40°06' W 074°00'1111.4
2017-May-11 19:48N 40°16' W 073°57'411.1
2017-May-11 19:29N 40°19' W 073°56'511.0
2017-May-11 18:59N 40°25' W 073°54'911.1
2017-May-11 18:09N 40°32' W 074°01'212.8
2017-May-11 18:00N 40°34' W 074°02'5 9.8
2017-May-11 17:31N 40°39' W 074°03'2 4.1
2017-May-11 17:01N 40°41' W 074°05'0 0.1
2017-May-11 16:30N 40°41' W 074°05'0 0.0
2017-May-11 16:00N 40°41' W 074°05'0 0.0
2017-May-11 15:30N 40°41' W 074°05'0 0.0
2017-May-11 15:00N 40°41' W 074°05'0 0.0
2017-May-11 14:30N 40°41' W 074°05'0 0.0
2017-May-11 13:30N 40°41' W 074°05'0 0.0
2017-May-11 13:00N 40°41' W 074°05'0 0.0
2017-May-11 12:30N 40°41' W 074°05'0 0.0
2017-May-11 12:00N 40°41' W 074°05'0 0.0
2017-May-11 11:31N 40°41' W 074°05'0 0.0
2017-May-11 11:00N 40°41' W 074°05'0 0.0
2017-May-11 10:30N 40°41' W 074°05'0 0.0
2017-May-11 10:00N 40°41' W 074°05'0 0.0
2017-May-11 09:30N 40°41' W 074°05'0 0.0
2017-May-11 09:00N 40°41' W 074°05'0 0.0
2017-May-11 08:30N 40°41' W 074°05'0 0.0
2017-May-11 08:00N 40°41' W 074°05'0 0.0
2017-May-11 07:30N 40°41' W 074°05'0 0.0
2017-May-11 07:00N 40°41' W 074°05'0 0.0
2017-May-11 06:30N 40°41' W 074°05'0 0.0
2017-May-11 06:00N 40°41' W 074°05'0 0.0
2017-May-11 05:30N 40°41' W 074°05'0 0.0
2017-May-11 05:00N 40°41' W 074°05'0 0.0
2017-May-11 04:30N 40°41' W 074°05'0 0.0
2017-May-11 04:00N 40°41' W 074°05'0 0.0
2017-May-11 03:30N 40°41' W 074°05'0 0.1
2017-May-11 03:00N 40°41' W 074°05'2 4.2
2017-May-11 02:30N 40°39' W 074°06'4 8.3
2017-May-11 02:00N 40°38' W 074°12'0 0.4
2017-May-11 01:30N 40°38' W 074°12'0 0.0
2017-May-11 01:00N 40°38' W 074°12'0 0.0
2017-May-11 00:30N 40°38' W 074°12'0 0.0
2017-May-11 00:00N 40°38' W 074°12'0 0.0
2017-May-10 23:30N 40°38' W 074°12'0 0.0
2017-May-10 23:00N 40°38' W 074°12'0 0.0
2017-May-10 22:30N 40°38' W 074°12'0 0.0
2017-May-10 21:56N 40°38' W 074°12'0 0.0
2017-May-10 21:30N 40°38' W 074°12'0 0.0
2017-May-10 21:00N 40°38' W 074°12'0 0.0
2017-May-10 20:30N 40°38' W 074°12'0 0.0
2017-May-10 20:00N 40°38' W 074°12'0 0.0
2017-May-10 19:30N 40°38' W 074°12'0 0.0
2017-May-10 18:59N 40°38' W 074°12'0 0.0
2017-May-10 18:30N 40°38' W 074°12'0 0.0
2017-May-10 18:00N 40°38' W 074°12'2 4.8
2017-May-10 17:30N 40°39' W 074°09'4 8.0
2017-May-10 17:00N 40°40' W 074°04'0 0.9
2017-May-10 16:30N 40°41' W 074°05'0 0.1
2017-May-10 16:00N 40°41' W 074°05'0 0.1
2017-May-10 15:30N 40°41' W 074°04'0 0.2
2017-May-10 15:01N 40°41' W 074°05'0 0.0
2017-May-10 14:00N 40°41' W 074°05'0 0.0
2017-May-10 13:30N 40°41' W 074°05'0 0.0
2017-May-10 13:00N 40°41' W 074°05'0 0.0
2017-May-10 12:31N 40°41' W 074°05'0 0.0
2017-May-10 12:00N 40°41' W 074°05'0 0.0
2017-May-10 11:30N 40°41' W 074°05'0 0.0
2017-May-10 11:00N 40°41' W 074°05'0 0.0
2017-May-10 10:30N 40°41' W 074°05'0 0.0
2017-May-10 10:01N 40°41' W 074°05'0 0.0
2017-May-10 09:30N 40°41' W 074°05'0 0.0
2017-May-10 09:00N 40°41' W 074°05'0 0.0
2017-May-10 08:30N 40°41' W 074°05'0 0.0
2017-May-10 08:00N 40°41' W 074°05'0 0.0
2017-May-10 07:30N 40°41' W 074°05'0 0.0
2017-May-10 07:00N 40°41' W 074°05'0 0.0
2017-May-10 06:30N 40°41' W 074°05'0 0.0
2017-May-10 06:00N 40°41' W 074°05'0 0.0
2017-May-10 05:30N 40°41' W 074°05'0 0.0
2017-May-10 05:00N 40°41' W 074°05'0 0.0
2017-May-10 04:31N 40°41' W 074°05'0 0.0
2017-May-10 04:00N 40°41' W 074°05'0 0.0
2017-May-10 03:30N 40°41' W 074°05'0 0.0
2017-May-10 03:00N 40°41' W 074°05'0 0.0
2017-May-10 02:30N 40°41' W 074°05'0 0.0
2017-May-10 02:01N 40°41' W 074°05'0 0.0
2017-May-10 01:30N 40°41' W 074°05'0 0.0
2017-May-10 01:01N 40°41' W 074°05'0 0.0
2017-May-10 00:30N 40°41' W 074°05'0 0.0
2017-May-10 00:00N 40°41' W 074°05'0 0.0
2017-May-09 23:30N 40°41' W 074°05'0 0.0
2017-May-09 23:00N 40°41' W 074°05'0 0.0
2017-May-09 22:31N 40°41' W 074°05'0 0.0
2017-May-09 22:00N 40°41' W 074°05'0 0.0
2017-May-09 21:30N 40°41' W 074°05'0 0.0
2017-May-09 21:00N 40°41' W 074°05'0 0.0
2017-May-09 20:30N 40°41' W 074°05'0 0.0
2017-May-09 20:00N 40°41' W 074°05'0 0.0
2017-May-09 19:30N 40°41' W 074°05'0 0.0
2017-May-09 19:00N 40°41' W 074°05'0 0.0
2017-May-09 18:30N 40°41' W 074°05'0 0.0
2017-May-09 18:01N 40°41' W 074°05'0 0.0
2017-May-09 17:30N 40°41' W 074°05'0 0.0
2017-May-09 17:00N 40°41' W 074°05'0 0.0
2017-May-09 16:31N 40°41' W 074°05'0 0.0
2017-May-09 16:00N 40°41' W 074°05'0 0.0
2017-May-09 15:31N 40°41' W 074°05'0 0.0
2017-May-09 15:01N 40°41' W 074°05'0 0.0
2017-May-09 14:30N 40°41' W 074°05'0 0.0
2017-May-09 13:30N 40°41' W 074°05'0 0.0
2017-May-09 13:00N 40°41' W 074°05'0 0.0
2017-May-09 12:30N 40°41' W 074°05'0 0.0
2017-May-09 12:00N 40°41' W 074°05'0 0.0
2017-May-09 11:30N 40°41' W 074°05'0 0.0
2017-May-09 11:00N 40°41' W 074°05'0 0.0
2017-May-09 10:30N 40°41' W 074°05'0 0.0
2017-May-09 10:00N 40°41' W 074°05'0 0.0
2017-May-09 09:30N 40°41' W 074°05'0 0.0
2017-May-09 09:00N 40°41' W 074°05'0 0.0
2017-May-09 08:30N 40°41' W 074°05'0 0.0
2017-May-09 08:00N 40°41' W 074°05'0 0.0
2017-May-09 07:30N 40°41' W 074°05'0 0.0
2017-May-09 07:01N 40°41' W 074°05'0 0.0
2017-May-09 06:30N 40°41' W 074°05'0 0.0
2017-May-09 06:00N 40°41' W 074°05'0 0.0
2017-May-09 05:31N 40°41' W 074°05'0 0.0
2017-May-09 05:00N 40°41' W 074°05'0 0.0
2017-May-09 04:31N 40°41' W 074°05'0 0.0
2017-May-09 04:01N 40°41' W 074°05'0 0.0
2017-May-09 03:31N 40°41' W 074°05'0 0.0
2017-May-09 03:01N 40°41' W 074°05'0 0.0
2017-May-09 02:30N 40°41' W 074°05'0 0.0
2017-May-09 02:00N 40°41' W 074°05'0 0.0
2017-May-09 01:31N 40°41' W 074°05'0 0.0
2017-May-09 01:00N 40°41' W 074°05'0 0.0
2017-May-09 00:30N 40°41' W 074°05'0 0.0
2017-May-09 00:00N 40°41' W 074°05'0 0.0
2017-May-08 23:30N 40°41' W 074°05'0 0.0
2017-May-08 23:00N 40°41' W 074°05'0 0.0
2017-May-08 22:30N 40°41' W 074°05'0 0.0
2017-May-08 22:00N 40°41' W 074°05'0 0.0
2017-May-08 21:31N 40°41' W 074°05'0 0.5
2017-May-08 21:00N 40°40' W 074°04'0 0.3
2017-May-08 20:30N 40°41' W 074°04'0 0.0
2017-May-08 20:00N 40°41' W 074°04'0 0.0
2017-May-08 19:30N 40°41' W 074°04'0 0.0
2017-May-08 19:00N 40°41' W 074°04'0 0.0
2017-May-08 18:30N 40°41' W 074°04'0 0.0
2017-May-08 18:00N 40°41' W 074°04'0 0.0
2017-May-08 17:30N 40°41' W 074°04'0 0.0
2017-May-08 17:00N 40°41' W 074°04'0 0.0
2017-May-08 16:30N 40°41' W 074°04'0 0.0
2017-May-08 16:00N 40°41' W 074°04'0 0.0
2017-May-08 15:30N 40°41' W 074°04'0 0.2
2017-May-08 15:01N 40°41' W 074°05'0 0.0
2017-May-08 14:00N 40°41' W 074°05'0 0.2
2017-May-08 13:30N 40°41' W 074°04'0 0.2
2017-May-08 13:00N 40°41' W 074°05'0 0.0
2017-May-08 12:30N 40°41' W 074°05'0 0.0
2017-May-08 12:00N 40°41' W 074°05'0 0.0
2017-May-08 11:30N 40°41' W 074°05'0 0.0
2017-May-08 11:00N 40°41' W 074°05'0 0.0
2017-May-08 10:30N 40°41' W 074°05'0 0.0
2017-May-08 10:00N 40°41' W 074°05'0 0.0
2017-May-08 09:30N 40°41' W 074°05'0 0.0
2017-May-08 09:00N 40°41' W 074°05'0 0.0
2017-May-08 08:30N 40°41' W 074°05'0 0.0
2017-May-08 08:00N 40°41' W 074°05'0 0.0
2017-May-08 07:30N 40°41' W 074°05'0 0.0
2017-May-08 07:01N 40°41' W 074°05'0 0.0
2017-May-08 06:30N 40°41' W 074°05'0 0.0
2017-May-08 06:00N 40°41' W 074°05'0 0.0
2017-May-08 05:30N 40°41' W 074°05'0 0.0
2017-May-08 05:00N 40°41' W 074°05'0 0.0
2017-May-08 04:31N 40°41' W 074°05'0 0.0
2017-May-08 04:00N 40°41' W 074°05'0 0.0
2017-May-08 03:30N 40°41' W 074°05'0 0.0
2017-May-08 03:00N 40°41' W 074°05'0 0.0
2017-May-08 02:31N 40°41' W 074°05'0 0.0
2017-May-08 02:00N 40°41' W 074°05'0 0.0
2017-May-08 01:31N 40°41' W 074°05'0 0.0
2017-May-08 01:01N 40°41' W 074°05'0 0.0
2017-May-08 00:31N 40°41' W 074°05'0 0.0
2017-May-08 00:00N 40°41' W 074°05'0 0.0
2017-May-07 23:30N 40°41' W 074°05'0 0.0
2017-May-07 23:00N 40°41' W 074°05'0 0.0
2017-May-07 22:30N 40°41' W 074°05'0 0.0
2017-May-07 22:00N 40°41' W 074°05'0 0.0
2017-May-07 21:30N 40°41' W 074°05'0 0.0
2017-May-07 21:00N 40°41' W 074°05'0 0.0
2017-May-07 20:30N 40°41' W 074°05'0 0.0
2017-May-07 20:00N 40°41' W 074°05'0 0.0
2017-May-07 19:30N 40°41' W 074°05'0 0.0
2017-May-07 19:00N 40°41' W 074°05'0 0.0
2017-May-07 18:30N 40°41' W 074°05'0 0.0
2017-May-07 18:00N 40°41' W 074°05'0 0.0
2017-May-07 17:31N 40°41' W 074°05'0 0.0
2017-May-07 17:00N 40°41' W 074°05'0 0.0
2017-May-07 16:31N 40°41' W 074°05'0 0.0
2017-May-07 16:00N 40°41' W 074°05'0 0.0
2017-May-07 15:30N 40°41' W 074°05'0 0.0
2017-May-07 15:00N 40°41' W 074°05'0 0.0
2017-May-07 14:00N 40°41' W 074°05'0 0.0
2017-May-07 13:30N 40°41' W 074°05'0 0.0
2017-May-07 13:00N 40°41' W 074°05'0 0.0
2017-May-07 12:31N 40°41' W 074°05'0 0.0
2017-May-07 12:00N 40°41' W 074°05'0 0.0
2017-May-07 11:31N 40°41' W 074°05'0 0.0
2017-May-07 11:00N 40°41' W 074°05'0 0.0
2017-May-07 10:31N 40°41' W 074°05'0 0.0
2017-May-07 10:00N 40°41' W 074°05'0 0.0
2017-May-07 09:30N 40°41' W 074°05'0 0.0
2017-May-07 09:00N 40°41' W 074°05'0 0.0
2017-May-07 08:30N 40°41' W 074°05'0 0.0
2017-May-07 08:00N 40°41' W 074°05'0 0.0
2017-May-07 07:31N 40°41' W 074°05'0 0.0
2017-May-07 07:00N 40°41' W 074°05'0 0.0
2017-May-07 06:30N 40°41' W 074°05'0 0.0
2017-May-07 06:00N 40°41' W 074°05'0 0.0
2017-May-07 05:30N 40°41' W 074°05'0 0.0
2017-May-07 05:00N 40°41' W 074°05'0 0.0
2017-May-07 04:30N 40°41' W 074°05'0 0.0
2017-May-07 04:01N 40°41' W 074°05'0 0.0
2017-May-07 03:31N 40°41' W 074°05'0 0.0
2017-May-07 03:01N 40°41' W 074°05'0 0.0
2017-May-07 02:30N 40°41' W 074°05'0 0.0
2017-May-07 02:00N 40°41' W 074°05'0 0.0
2017-May-07 01:30N 40°41' W 074°05'0 0.0
2017-May-07 01:00N 40°41' W 074°05'0 0.0
2017-May-07 00:30N 40°41' W 074°05'0 0.0
2017-May-07 00:00N 40°41' W 074°05'0 0.0
2017-May-06 23:30N 40°41' W 074°05'0 0.0
2017-May-06 23:00N 40°41' W 074°05'0 0.0
2017-May-06 22:31N 40°41' W 074°05'0 0.0
2017-May-06 22:00N 40°41' W 074°05'0 0.0
2017-May-06 21:31N 40°41' W 074°05'0 0.0
2017-May-06 21:00N 40°41' W 074°05'0 0.0
2017-May-06 20:31N 40°41' W 074°05'0 0.0
2017-May-06 20:00N 40°41' W 074°05'0 0.0
2017-May-06 19:30N 40°41' W 074°05'0 0.0
2017-May-06 19:01N 40°41' W 074°05'0 0.0
2017-May-06 18:30N 40°41' W 074°05'0 0.0
2017-May-06 18:00N 40°41' W 074°05'0 0.0
2017-May-06 17:30N 40°41' W 074°05'0 0.0
2017-May-06 17:01N 40°41' W 074°05'0 0.0
2017-May-06 16:31N 40°41' W 074°05'0 0.0
2017-May-06 16:00N 40°41' W 074°05'0 0.0
2017-May-06 15:30N 40°41' W 074°05'0 0.0
2017-May-06 15:01N 40°41' W 074°05'0 0.0
2017-May-06 14:01N 40°41' W 074°05'0 0.0
2017-May-06 13:30N 40°41' W 074°05'0 0.0
2017-May-06 13:00N 40°41' W 074°05'0 0.0
2017-May-06 12:30N 40°41' W 074°05'0 0.0
2017-May-06 12:00N 40°41' W 074°05'0 0.0
2017-May-06 11:31N 40°41' W 074°05'0 0.0
2017-May-06 11:00N 40°41' W 074°05'0 0.0
2017-May-06 10:30N 40°41' W 074°05'0 0.0
2017-May-06 10:00N 40°41' W 074°05'0 0.0
2017-May-06 09:30N 40°41' W 074°05'0 0.0
2017-May-06 09:01N 40°41' W 074°05'0 0.0
2017-May-06 08:30N 40°41' W 074°05'0 0.0
2017-May-06 08:00N 40°41' W 074°05'0 0.0
2017-May-06 07:31N 40°41' W 074°05'0 0.0
2017-May-06 07:00N 40°41' W 074°05'0 0.0
2017-May-06 06:30N 40°41' W 074°05'0 0.0
2017-May-06 06:01N 40°41' W 074°05'0 0.0
2017-May-06 05:30N 40°41' W 074°05'0 0.0
2017-May-06 05:00N 40°41' W 074°05'0 0.0
2017-May-06 04:30N 40°41' W 074°05'0 0.0
2017-May-06 04:01N 40°41' W 074°05'0 0.0
2017-May-06 03:31N 40°41' W 074°05'0 0.0
2017-May-06 03:00N 40°41' W 074°05'0 0.0
2017-May-06 02:31N 40°41' W 074°05'0 0.0
2017-May-06 02:00N 40°41' W 074°05'0 0.0
2017-May-06 01:30N 40°41' W 074°05'0 0.0
2017-May-06 01:00N 40°41' W 074°05'0 0.0
2017-May-06 00:31N 40°41' W 074°05'0 0.0
2017-May-06 00:00N 40°41' W 074°05'0 0.0
2017-May-05 23:31N 40°41' W 074°05'0 0.0
2017-May-05 23:01N 40°41' W 074°05'0 0.0
2017-May-05 22:31N 40°41' W 074°05'0 0.0
2017-May-05 22:00N 40°41' W 074°05'0 0.0
2017-May-05 21:30N 40°41' W 074°05'0 0.0
2017-May-05 21:01N 40°41' W 074°05'0 0.0
2017-May-05 20:30N 40°41' W 074°05'0 0.0
2017-May-05 20:01N 40°41' W 074°05'0 0.0
2017-May-05 19:30N 40°41' W 074°05'0 0.0
2017-May-05 19:00N 40°41' W 074°05'0 0.0
2017-May-05 18:30N 40°41' W 074°05'  
Track history (hours):
 
Tides and Currents Weather Stations Pressure Air Temp Water Temp Dewpoint Dewpoint Depression Visibility Wind Speed Wind Dir Waves Ship Positions

Alexandra

Owner: Weeks Marine, Inc., Cranford, NJ. More information available from US FCC via Universal Licensing System and Coast Guard Vessel Documentation Center.

Last reported at 2017-May-15 18:17 UTC. Time now 2017-May-23 07:04 UTC.
Position N 25°17' W 080°07'.

Length 37 m; draft 5 m.

Type: Tug. MMSI: 367161950.

Date/timePositionNaut miles runAvg speedWind from/ knotsBaromVisibWave heightAir tempDewpointWater temp
2017-May-15 18:17N 25°17' W 080°07'310.5
2017-May-15 17:59N 25°20' W 080°06'510.1
2017-May-15 17:30N 25°25' W 080°05'5 9.7
2017-May-15 17:00N 25°30' W 080°04'5 9.3
2017-May-15 16:30N 25°34' W 080°03'4 8.9
2017-May-15 16:00N 25°39' W 080°03'4 8.7
2017-May-15 15:30N 25°43' W 080°04'4 8.6
2017-May-15 15:00N 25°47' W 080°04'9 8.6
2017-May-15 14:00N 25°56' W 080°04'5 8.9
2017-May-15 13:30N 26°00' W 080°04'4 9.0
2017-May-15 13:00N 26°05' W 080°04'5 9.2
2017-May-15 12:30N 26°09' W 080°03'5 9.3
2017-May-15 12:00N 26°14' W 080°02'510.2
2017-May-15 11:30N 26°19' W 080°02'510.5
2017-May-15 11:00N 26°24' W 080°03'510.4
2017-May-15 10:30N 26°29' W 080°02'510.6
2017-May-15 10:00N 26°35' W 080°02'611.2
2017-May-15 09:30N 26°40' W 080°01'710.7
2017-May-15 08:52N 26°47' W 079°59'410.5
2017-May-15 08:30N 26°51' W 079°60'611.1
2017-May-15 08:00N 26°56' W 080°01'612.0
2017-May-15 07:30N 27°02' W 080°03'28911.4
2017-May-14 06:12N 31°48' W 080°46'311.6
2017-May-14 05:59N 31°50' W 080°44'511.5
2017-May-14 05:30N 31°55' W 080°40'25711.1
2017-May-13 06:19N 34°24' W 076°30'28010.7
2017-May-12 04:05N 38°52' W 074°49'111.3
2017-May-12 03:59N 38°52' W 074°48'511.4
2017-May-12 03:30N 38°57' W 074°44'611.5
2017-May-12 02:58N 39°02' W 074°39'3611.5
2017-May-11 23:52N 39°31' W 074°12'511.7
2017-May-11 23:27N 39°35' W 074°09'511.6
2017-May-11 22:59N 39°40' W 074°06'611.6
2017-May-11 22:30N 39°45' W 074°03'2111.6
2017-May-11 20:43N 40°06' W 074°00'1111.4
2017-May-11 19:48N 40°16' W 073°57'411.1
2017-May-11 19:29N 40°19' W 073°56'511.0
2017-May-11 18:59N 40°25' W 073°54'911.1
2017-May-11 18:09N 40°32' W 074°01'212.8
2017-May-11 18:00N 40°34' W 074°02'5 9.8
2017-May-11 17:31N 40°39' W 074°03'2 4.1
2017-May-11 17:01N 40°41' W 074°05'0 0.1
2017-May-11 16:30N 40°41' W 074°05'0 0.0
2017-May-11 16:00N 40°41' W 074°05'0 0.0
2017-May-11 15:30N 40°41' W 074°05'0 0.0
2017-May-11 15:00N 40°41' W 074°05'0 0.0
2017-May-11 14:30N 40°41' W 074°05'0 0.0
2017-May-11 13:30N 40°41' W 074°05'0 0.0
2017-May-11 13:00N 40°41' W 074°05'0 0.0
2017-May-11 12:30N 40°41' W 074°05'0 0.0
2017-May-11 12:00N 40°41' W 074°05'0 0.0
2017-May-11 11:31N 40°41' W 074°05'0 0.0
2017-May-11 11:00N 40°41' W 074°05'0 0.0
2017-May-11 10:30N 40°41' W 074°05'0 0.0
2017-May-11 10:00N 40°41' W 074°05'0 0.0
2017-May-11 09:30N 40°41' W 074°05'0 0.0
2017-May-11 09:00N 40°41' W 074°05'0 0.0
2017-May-11 08:30N 40°41' W 074°05'0 0.0
2017-May-11 08:00N 40°41' W 074°05'0 0.0
2017-May-11 07:30N 40°41' W 074°05'0 0.0
2017-May-11 07:00N 40°41' W 074°05'0 0.0
2017-May-11 06:30N 40°41' W 074°05'0 0.0
2017-May-11 06:00N 40°41' W 074°05'0 0.0
2017-May-11 05:30N 40°41' W 074°05'0 0.0
2017-May-11 05:00N 40°41' W 074°05'0 0.0
2017-May-11 04:30N 40°41' W 074°05'0 0.0
2017-May-11 04:00N 40°41' W 074°05'0 0.0
2017-May-11 03:30N 40°41' W 074°05'0 0.1
2017-May-11 03:00N 40°41' W 074°05'2 4.2
2017-May-11 02:30N 40°39' W 074°06'4 8.3
2017-May-11 02:00N 40°38' W 074°12'0 0.4
2017-May-11 01:30N 40°38' W 074°12'0 0.0
2017-May-11 01:00N 40°38' W 074°12'0 0.0
2017-May-11 00:30N 40°38' W 074°12'0 0.0
2017-May-11 00:00N 40°38' W 074°12'0 0.0
2017-May-10 23:30N 40°38' W 074°12'0 0.0
2017-May-10 23:00N 40°38' W 074°12'0 0.0
2017-May-10 22:30N 40°38' W 074°12'0 0.0
2017-May-10 21:56N 40°38' W 074°12'0 0.0
2017-May-10 21:30N 40°38' W 074°12'0 0.0
2017-May-10 21:00N 40°38' W 074°12'0 0.0
2017-May-10 20:30N 40°38' W 074°12'0 0.0
2017-May-10 20:00N 40°38' W 074°12'0 0.0
2017-May-10 19:30N 40°38' W 074°12'0 0.0
2017-May-10 18:59N 40°38' W 074°12'0 0.0
2017-May-10 18:30N 40°38' W 074°12'0 0.0
2017-May-10 18:00N 40°38' W 074°12'2 4.8
2017-May-10 17:30N 40°39' W 074°09'4 8.0
2017-May-10 17:00N 40°40' W 074°04'0 0.9
2017-May-10 16:30N 40°41' W 074°05'0 0.1
2017-May-10 16:00N 40°41' W 074°05'0 0.1
2017-May-10 15:30N 40°41' W 074°04'0 0.2
2017-May-10 15:01N 40°41' W 074°05'0 0.0
2017-May-10 14:00N 40°41' W 074°05'0 0.0
2017-May-10 13:30N 40°41' W 074°05'0 0.0
2017-May-10 13:00N 40°41' W 074°05'0 0.0
2017-May-10 12:31N 40°41' W 074°05'0 0.0
2017-May-10 12:00N 40°41' W 074°05'0 0.0
2017-May-10 11:30N 40°41' W 074°05'0 0.0
2017-May-10 11:00N 40°41' W 074°05'0 0.0
2017-May-10 10:30N 40°41' W 074°05'0 0.0
2017-May-10 10:01N 40°41' W 074°05'0 0.0
2017-May-10 09:30N 40°41' W 074°05'0 0.0
2017-May-10 09:00N 40°41' W 074°05'0 0.0
2017-May-10 08:30N 40°41' W 074°05'0 0.0
2017-May-10 08:00N 40°41' W 074°05'0 0.0
2017-May-10 07:30N 40°41' W 074°05'0 0.0
2017-May-10 07:00N 40°41' W 074°05'0 0.0
2017-May-10 06:30N 40°41' W 074°05'0 0.0
2017-May-10 06:00N 40°41' W 074°05'0 0.0
2017-May-10 05:30N 40°41' W 074°05'0 0.0
2017-May-10 05:00N 40°41' W 074°05'0 0.0
2017-May-10 04:31N 40°41' W 074°05'0 0.0
2017-May-10 04:00N 40°41' W 074°05'0 0.0
2017-May-10 03:30N 40°41' W 074°05'0 0.0
2017-May-10 03:00N 40°41' W 074°05'0 0.0
2017-May-10 02:30N 40°41' W 074°05'0 0.0
2017-May-10 02:01N 40°41' W 074°05'0 0.0
2017-May-10 01:30N 40°41' W 074°05'0 0.0
2017-May-10 01:01N 40°41' W 074°05'0 0.0
2017-May-10 00:30N 40°41' W 074°05'0 0.0
2017-May-10 00:00N 40°41' W 074°05'0 0.0
2017-May-09 23:30N 40°41' W 074°05'0 0.0
2017-May-09 23:00N 40°41' W 074°05'0 0.0
2017-May-09 22:31N 40°41' W 074°05'0 0.0
2017-May-09 22:00N 40°41' W 074°05'0 0.0
2017-May-09 21:30N 40°41' W 074°05'0 0.0
2017-May-09 21:00N 40°41' W 074°05'0 0.0
2017-May-09 20:30N 40°41' W 074°05'0 0.0
2017-May-09 20:00N 40°41' W 074°05'0 0.0
2017-May-09 19:30N 40°41' W 074°05'0 0.0
2017-May-09 19:00N 40°41' W 074°05'0 0.0
2017-May-09 18:30N 40°41' W 074°05'0 0.0
2017-May-09 18:01N 40°41' W 074°05'0 0.0
2017-May-09 17:30N 40°41' W 074°05'0 0.0
2017-May-09 17:00N 40°41' W 074°05'0 0.0
2017-May-09 16:31N 40°41' W 074°05'0 0.0
2017-May-09 16:00N 40°41' W 074°05'0 0.0
2017-May-09 15:31N 40°41' W 074°05'0 0.0
2017-May-09 15:01N 40°41' W 074°05'0 0.0
2017-May-09 14:30N 40°41' W 074°05'0 0.0
2017-May-09 13:30N 40°41' W 074°05'0 0.0
2017-May-09 13:00N 40°41' W 074°05'0 0.0
2017-May-09 12:30N 40°41' W 074°05'0 0.0
2017-May-09 12:00N 40°41' W 074°05'0 0.0
2017-May-09 11:30N 40°41' W 074°05'0 0.0
2017-May-09 11:00N 40°41' W 074°05'0 0.0
2017-May-09 10:30N 40°41' W 074°05'0 0.0
2017-May-09 10:00N 40°41' W 074°05'0 0.0
2017-May-09 09:30N 40°41' W 074°05'0 0.0
2017-May-09 09:00N 40°41' W 074°05'0 0.0
2017-May-09 08:30N 40°41' W 074°05'0 0.0
2017-May-09 08:00N 40°41' W 074°05'0 0.0
2017-May-09 07:30N 40°41' W 074°05'0 0.0
2017-May-09 07:01N 40°41' W 074°05'0 0.0
2017-May-09 06:30N 40°41' W 074°05'0 0.0
2017-May-09 06:00N 40°41' W 074°05'0 0.0
2017-May-09 05:31N 40°41' W 074°05'0 0.0
2017-May-09 05:00N 40°41' W 074°05'0 0.0
2017-May-09 04:31N 40°41' W 074°05'0 0.0
2017-May-09 04:01N 40°41' W 074°05'0 0.0
2017-May-09 03:31N 40°41' W 074°05'0 0.0
2017-May-09 03:01N 40°41' W 074°05'0 0.0
2017-May-09 02:30N 40°41' W 074°05'0 0.0
2017-May-09 02:00N 40°41' W 074°05'0 0.0
2017-May-09 01:31N 40°41' W 074°05'0 0.0
2017-May-09 01:00N 40°41' W 074°05'0 0.0
2017-May-09 00:30N 40°41' W 074°05'0 0.0
2017-May-09 00:00N 40°41' W 074°05'0 0.0
2017-May-08 23:30N 40°41' W 074°05'0 0.0
2017-May-08 23:00N 40°41' W 074°05'0 0.0
2017-May-08 22:30N 40°41' W 074°05'0 0.0
2017-May-08 22:00N 40°41' W 074°05'0 0.0
2017-May-08 21:31N 40°41' W 074°05'0 0.5
2017-May-08 21:00N 40°40' W 074°04'0 0.3
2017-May-08 20:30N 40°41' W 074°04'0 0.0
2017-May-08 20:00N 40°41' W 074°04'0 0.0
2017-May-08 19:30N 40°41' W 074°04'0 0.0
2017-May-08 19:00N 40°41' W 074°04'0 0.0
2017-May-08 18:30N 40°41' W 074°04'0 0.0
2017-May-08 18:00N 40°41' W 074°04'0 0.0
2017-May-08 17:30N 40°41' W 074°04'0 0.0
2017-May-08 17:00N 40°41' W 074°04'0 0.0
2017-May-08 16:30N 40°41' W 074°04'0 0.0
2017-May-08 16:00N 40°41' W 074°04'0 0.0
2017-May-08 15:30N 40°41' W 074°04'0 0.2
2017-May-08 15:01N 40°41' W 074°05'0 0.0
2017-May-08 14:00N 40°41' W 074°05'0 0.2
2017-May-08 13:30N 40°41' W 074°04'0 0.2
2017-May-08 13:00N 40°41' W 074°05'0 0.0
2017-May-08 12:30N 40°41' W 074°05'0 0.0
2017-May-08 12:00N 40°41' W 074°05'0 0.0
2017-May-08 11:30N 40°41' W 074°05'0 0.0
2017-May-08 11:00N 40°41' W 074°05'0 0.0
2017-May-08 10:30N 40°41' W 074°05'0 0.0
2017-May-08 10:00N 40°41' W 074°05'0 0.0
2017-May-08 09:30N 40°41' W 074°05'0 0.0
2017-May-08 09:00N 40°41' W 074°05'0 0.0
2017-May-08 08:30N 40°41' W 074°05'0 0.0
2017-May-08 08:00N 40°41' W 074°05'0 0.0
2017-May-08 07:30N 40°41' W 074°05'0 0.0
2017-May-08 07:01N 40°41' W 074°05'0 0.0
2017-May-08 06:30N 40°41' W 074°05'0 0.0
2017-May-08 06:00N 40°41' W 074°05'0 0.0
2017-May-08 05:30N 40°41' W 074°05'0 0.0
2017-May-08 05:00N 40°41' W 074°05'0 0.0
2017-May-08 04:31N 40°41' W 074°05'0 0.0
2017-May-08 04:00N 40°41' W 074°05'0 0.0
2017-May-08 03:30N 40°41' W 074°05'0 0.0
2017-May-08 03:00N 40°41' W 074°05'0 0.0
2017-May-08 02:31N 40°41' W 074°05'0 0.0
2017-May-08 02:00N 40°41' W 074°05'0 0.0
2017-May-08 01:31N 40°41' W 074°05'0 0.0
2017-May-08 01:01N 40°41' W 074°05'0 0.0
2017-May-08 00:31N 40°41' W 074°05'0 0.0
2017-May-08 00:00N 40°41' W 074°05'0 0.0
2017-May-07 23:30N 40°41' W 074°05'0 0.0
2017-May-07 23:00N 40°41' W 074°05'0 0.0
2017-May-07 22:30N 40°41' W 074°05'0 0.0
2017-May-07 22:00N 40°41' W 074°05'0 0.0
2017-May-07 21:30N 40°41' W 074°05'0 0.0
2017-May-07 21:00N 40°41' W 074°05'0 0.0
2017-May-07 20:30N 40°41' W 074°05'0 0.0
2017-May-07 20:00N 40°41' W 074°05'0 0.0
2017-May-07 19:30N 40°41' W 074°05'0 0.0
2017-May-07 19:00N 40°41' W 074°05'0 0.0
2017-May-07 18:30N 40°41' W 074°05'0 0.0
2017-May-07 18:00N 40°41' W 074°05'0 0.0
2017-May-07 17:31N 40°41' W 074°05'0 0.0
2017-May-07 17:00N 40°41' W 074°05'0 0.0
2017-May-07 16:31N 40°41' W 074°05'0 0.0
2017-May-07 16:00N 40°41' W 074°05'0 0.0
2017-May-07 15:30N 40°41' W 074°05'0 0.0
2017-May-07 15:00N 40°41' W 074°05'0 0.0
2017-May-07 14:00N 40°41' W 074°05'0 0.0
2017-May-07 13:30N 40°41' W 074°05'0 0.0
2017-May-07 13:00N 40°41' W 074°05'0 0.0
2017-May-07 12:31N 40°41' W 074°05'0 0.0
2017-May-07 12:00N 40°41' W 074°05'0 0.0
2017-May-07 11:31N 40°41' W 074°05'0 0.0
2017-May-07 11:00N 40°41' W 074°05'0 0.0
2017-May-07 10:31N 40°41' W 074°05'0 0.0
2017-May-07 10:00N 40°41' W 074°05'0 0.0
2017-May-07 09:30N 40°41' W 074°05'0 0.0
2017-May-07 09:00N 40°41' W 074°05'0 0.0
2017-May-07 08:30N 40°41' W 074°05'0 0.0
2017-May-07 08:00N 40°41' W 074°05'0 0.0
2017-May-07 07:31N 40°41' W 074°05'0 0.0
2017-May-07 07:00N 40°41' W 074°05'0 0.0
2017-May-07 06:30N 40°41' W 074°05'0 0.0
2017-May-07 06:00N 40°41' W 074°05'0 0.0
2017-May-07 05:30N 40°41' W 074°05'0 0.0
2017-May-07 05:00N 40°41' W 074°05'0 0.0
2017-May-07 04:30N 40°41' W 074°05'0 0.0
2017-May-07 04:01N 40°41' W 074°05'0 0.0
2017-May-07 03:31N 40°41' W 074°05'0 0.0
2017-May-07 03:01N 40°41' W 074°05'0 0.0
2017-May-07 02:30N 40°41' W 074°05'0 0.0
2017-May-07 02:00N 40°41' W 074°05'0 0.0
2017-May-07 01:30N 40°41' W 074°05'0 0.0
2017-May-07 01:00N 40°41' W 074°05'0 0.0
2017-May-07 00:30N 40°41' W 074°05'0 0.0
2017-May-07 00:00N 40°41' W 074°05'0 0.0
2017-May-06 23:30N 40°41' W 074°05'0 0.0
2017-May-06 23:00N 40°41' W 074°05'0 0.0
2017-May-06 22:31N 40°41' W 074°05'0 0.0
2017-May-06 22:00N 40°41' W 074°05'0 0.0
2017-May-06 21:31N 40°41' W 074°05'0 0.0
2017-May-06 21:00N 40°41' W 074°05'0 0.0
2017-May-06 20:31N 40°41' W 074°05'0 0.0
2017-May-06 20:00N 40°41' W 074°05'0 0.0
2017-May-06 19:30N 40°41' W 074°05'0 0.0
2017-May-06 19:01N 40°41' W 074°05'0 0.0
2017-May-06 18:30N 40°41' W 074°05'0 0.0
2017-May-06 18:00N 40°41' W 074°05'0 0.0
2017-May-06 17:30N 40°41' W 074°05'0 0.0
2017-May-06 17:01N 40°41' W 074°05'0 0.0
2017-May-06 16:31N 40°41' W 074°05'0 0.0
2017-May-06 16:00N 40°41' W 074°05'0 0.0
2017-May-06 15:30N 40°41' W 074°05'0 0.0
2017-May-06 15:01N 40°41' W 074°05'0 0.0
2017-May-06 14:01N 40°41' W 074°05'0 0.0
2017-May-06 13:30N 40°41' W 074°05'0 0.0
2017-May-06 13:00N 40°41' W 074°05'0 0.0
2017-May-06 12:30N 40°41' W 074°05'0 0.0
2017-May-06 12:00N 40°41' W 074°05'0 0.0
2017-May-06 11:31N 40°41' W 074°05'0 0.0
2017-May-06 11:00N 40°41' W 074°05'0 0.0
2017-May-06 10:30N 40°41' W 074°05'0 0.0
2017-May-06 10:00N 40°41' W 074°05'0 0.0
2017-May-06 09:30N 40°41' W 074°05'0 0.0
2017-May-06 09:01N 40°41' W 074°05'0 0.0
2017-May-06 08:30N 40°41' W 074°05'0 0.0
2017-May-06 08:00N 40°41' W 074°05'0 0.0
2017-May-06 07:31N 40°41' W 074°05'0 0.0
2017-May-06 07:00N 40°41' W 074°05'0 0.0
2017-May-06 06:30N 40°41' W 074°05'0 0.0
2017-May-06 06:01N 40°41' W 074°05'0 0.0
2017-May-06 05:30N 40°41' W 074°05'0 0.0
2017-May-06 05:00N 40°41' W 074°05'0 0.0
2017-May-06 04:30N 40°41' W 074°05'0 0.0
2017-May-06 04:01N 40°41' W 074°05'0 0.0
2017-May-06 03:31N 40°41' W 074°05'0 0.0
2017-May-06 03:00N 40°41' W 074°05'0 0.0
2017-May-06 02:31N 40°41' W 074°05'0 0.0
2017-May-06 02:00N 40°41' W 074°05'0 0.0
2017-May-06 01:30N 40°41' W 074°05'0 0.0
2017-May-06 01:00N 40°41' W 074°05'0 0.0
2017-May-06 00:31N 40°41' W 074°05'0 0.0
2017-May-06 00:00N 40°41' W 074°05'0 0.0
2017-May-05 23:31N 40°41' W 074°05'0 0.0
2017-May-05 23:01N 40°41' W 074°05'0 0.0
2017-May-05 22:31N 40°41' W 074°05'0 0.0
2017-May-05 22:00N 40°41' W 074°05'0 0.0
2017-May-05 21:30N 40°41' W 074°05'0 0.0
2017-May-05 21:01N 40°41' W 074°05'0 0.0
2017-May-05 20:30N 40°41' W 074°05'0 0.0
2017-May-05 20:01N 40°41' W 074°05'0 0.0
2017-May-05 19:30N 40°41' W 074°05'0 0.0
2017-May-05 19:00N 40°41' W 074°05'0 0.0
2017-May-05 18:30N 40°41' W 074°05'  

Dump ship's entire track history